Huvudsida
METAR-TAF:

METAR-TAF

Flygplatser :

Villmanstrands flygplats

Villmanstrand, Finland

latitud: 61-02-45N, longitud: 028-08-55E, höjd: 106 m

Aktuellt väderrapport

Denna rapport gjordes för 19 minuter sedan, klockan 05:50 UTC
Vind 8 kt från syd, varierande mellan sydost och väst/sydväst
Temperatur 18°C
Fuktighet 73%
Tryck 995 hPa
Sikt 10 km eller mer
Få moln på en höjd av 3500 ft

METAR: EFLP 220550Z AUTO 18008KT 130V240 9999 FEW035 18/13 Q0995

Tid: 09:09 (06:09 UTC)

Väderprognos

Denna rapport gjordes för 18 timmar och 35 minuter sedan, klockan 11:34 UTC
Prognos gäller från 21 kl. 12 UTC till 21 kl. 16 UTC
Vind 8 kt från syd/sydväst
Sikt 10 km eller mer
Brutna moln på en höjd av 900 ft
Blir
från 21 kl. 12 UTC till 21 kl. 14 UTC
Spridda moln på en höjd av 1000 ft

TAF: EFLP 211134Z 2112/2116 20008KT 9999 BKN009 BECMG 2112/2114 SCT010

Aktuella väderrapporter och prognoser från 4000 flygplatser (METAR- och TAF-rapporter).

De tillgängliga stationerna syns som gula och röda prickar på kartan.

För musen över prickarna för att se namnen på stationerna.

Klicka sedan för att få väderrapporter och prognoser.

För att ändra kartan: Klicka på de gröna knapparna med ett svart kors på för att zooma in; den gröna knappen med ett streck på för att zooma ut; eller på de gröna pilarna för angränsande kartor.


METAR-TAF: